Time;durP1;ratioP1;P1;durP2;ratioP2;P2;SDS_P1;SDS_P2;PMS_P1;PMS_P2;Temp;Humidity;BMP_temperature;BMP_pressure;BME280_temperature;BME280_humidity;BME280_pressure;Samples;Min_cycle;Max_cycle;Signal;HPM_P1;HPM_P2
2022/12/24 00:01:30;;;;;;;0.30;0.30;;;6.60;99.90;;;;;;4403884;32;20521;-77
2022/12/24 00:03:55;;;;;;;0.50;0.50;;;6.60;99.90;;;;;;4404985;32;20129;-77
2022/12/24 00:06:22;;;;;;;0.50;0.50;;;6.60;99.90;;;;;;4402732;32;20242;-77
2022/12/24 00:08:50;;;;;;;0.40;0.40;;;6.60;99.90;;;;;;4402415;32;20105;-77
2022/12/24 00:11:16;;;;;;;1.30;0.80;;;6.60;99.90;;;;;;4392097;32;20081;-78
2022/12/24 00:13:42;;;;;;;0.47;0.47;;;6.60;99.90;;;;;;4388909;32;20404;-77
2022/12/24 00:16:08;;;;;;;0.40;0.40;;;6.60;99.90;;;;;;4400955;32;20094;-77
2022/12/24 00:18:33;;;;;;;0.30;0.30;;;6.50;99.90;;;;;;4402161;32;20395;-77
2022/12/24 00:21:00;;;;;;;0.50;0.50;;;6.50;99.90;;;;;;4399820;32;20057;-77
2022/12/24 00:23:26;;;;;;;0.40;0.40;;;6.50;99.90;;;;;;4402031;32;20089;-77
2022/12/24 00:25:51;;;;;;;0.65;0.60;;;6.50;99.90;;;;;;4399656;32;20091;-77
2022/12/24 00:28:17;;;;;;;0.30;0.30;;;6.50;99.90;;;;;;4399791;32;20093;-78
2022/12/24 00:30:42;;;;;;;0.60;0.60;;;6.40;99.90;;;;;;4399377;32;20093;-77
2022/12/24 00:33:08;;;;;;;0.47;0.47;;;6.40;99.90;;;;;;4400293;32;20529;-77
2022/12/24 00:35:35;;;;;;;0.40;0.40;;;6.40;99.90;;;;;;4404259;32;20065;-77
2022/12/24 00:38:02;;;;;;;0.50;0.50;;;6.40;99.90;;;;;;4405082;32;20070;-77
2022/12/24 00:40:28;;;;;;;1.83;1.20;;;6.40;99.90;;;;;;4397343;32;20147;-78
2022/12/24 00:42:54;;;;;;;0.40;0.40;;;6.40;99.90;;;;;;4388179;32;20078;-78
2022/12/24 00:45:19;;;;;;;0.52;0.52;;;6.40;99.90;;;;;;4397042;32;20117;-77
2022/12/24 00:47:45;;;;;;;0.40;0.40;;;6.40;99.90;;;;;;4401582;32;20070;-78
2022/12/24 00:50:10;;;;;;;0.50;0.50;;;6.40;99.90;;;;;;4404794;32;20073;-77
2022/12/24 00:52:36;;;;;;;0.75;0.75;;;6.50;99.90;;;;;;4403707;32;20102;-77
2022/12/24 00:55:01;;;;;;;0.50;0.50;;;6.40;99.90;;;;;;4404060;32;20173;-77
2022/12/24 00:57:27;;;;;;;0.40;0.40;;;6.40;99.90;;;;;;4403046;32;20214;-77
2022/12/24 00:59:52;;;;;;;1.08;0.50;;;6.40;99.90;;;;;;4403493;32;20062;-77
2022/12/24 01:02:18;;;;;;;0.45;0.45;;;6.40;99.90;;;;;;4404563;32;20683;-77
2022/12/24 01:05:19;;;;;;;0.32;0.32;;;6.40;99.90;;;;;;4400845;32;20481;-77
2022/12/24 01:07:31;;;;;;;0.35;0.35;;;6.40;99.90;;;;;;4390035;32;20166;-77
2022/12/24 01:09:56;;;;;;;2.85;0.57;;;6.40;99.90;;;;;;4398643;32;20431;-78
2022/12/24 01:12:22;;;;;;;0.30;0.30;;;6.40;99.90;;;;;;4387789;32;20082;-78
2022/12/24 01:14:48;;;;;;;0.50;0.50;;;6.40;99.90;;;;;;4390981;32;20079;-77
2022/12/24 01:17:13;;;;;;;0.95;0.90;;;6.40;99.90;;;;;;4401455;32;20070;-77
2022/12/24 01:19:39;;;;;;;0.85;0.50;;;6.30;99.90;;;;;;4402192;32;20070;-78
2022/12/24 01:22:04;;;;;;;0.43;0.43;;;6.40;99.90;;;;;;4400761;32;20439;-77
2022/12/24 01:24:30;;;;;;;0.40;0.40;;;6.30;99.90;;;;;;4403707;32;20093;-77
2022/12/24 01:26:55;;;;;;;0.30;0.30;;;6.30;99.90;;;;;;4403141;32;20066;-77
2022/12/24 01:29:21;;;;;;;0.65;0.65;;;6.30;99.90;;;;;;4403045;32;20543;-77
2022/12/24 01:31:46;;;;;;;0.55;0.55;;;6.30;99.90;;;;;;4399513;32;20074;-77
2022/12/24 01:34:12;;;;;;;0.60;0.60;;;6.30;99.90;;;;;;4402308;32;20924;-78
2022/12/24 01:36:37;;;;;;;0.50;0.50;;;6.30;99.90;;;;;;4401092;32;20538;-77
2022/12/24 01:39:03;;;;;;;0.85;0.70;;;6.40;99.90;;;;;;4404301;32;20141;-77
2022/12/24 01:43:30;;;;;;;0.90;0.90;;;6.40;99.90;;;;;;4392795;32;20070;-78
2022/12/24 01:44:21;;;;;;;1.08;0.82;;;6.40;99.90;;;;;;4375488;32;20105;-77
2022/12/24 01:46:50;;;;;;;0.80;0.70;;;6.40;99.90;;;;;;4402682;32;20105;-77
2022/12/24 01:49:17;;;;;;;0.40;0.40;;;6.40;99.90;;;;;;4401691;32;20473;-78
2022/12/24 01:51:50;;;;;;;0.40;0.40;;;6.40;99.90;;;;;;4402896;32;20529;-77
2022/12/24 01:54:21;;;;;;;0.62;0.62;;;6.30;99.90;;;;;;4402484;32;20090;-77
2022/12/24 01:56:49;;;;;;;;;;;6.40;99.90;;;;;;4402589;32;20132;-77
2022/12/24 01:59:18;;;;;;;0.60;0.60;;;6.40;99.90;;;;;;4402314;32;19989;-78
2022/12/24 02:01:46;;;;;;;0.40;0.40;;;6.30;99.90;;;;;;4401334;32;20070;-77
2022/12/24 02:04:27;;;;;;;0.30;0.30;;;6.40;99.90;;;;;;4400684;32;20051;-77
2022/12/24 02:06:52;;;;;;;;;;;6.40;99.90;;;;;;4402049;32;20887;-77
2022/12/24 02:09:19;;;;;;;0.47;0.47;;;6.40;99.90;;;;;;4402758;32;19990;-77
2022/12/24 02:11:44;;;;;;;1.73;0.82;;;6.40;99.90;;;;;;4387813;32;20066;-78
2022/12/24 02:14:12;;;;;;;0.43;0.43;;;6.40;99.90;;;;;;4392254;32;20085;-78
2022/12/24 02:17:14;;;;;;;0.82;0.70;;;6.40;99.90;;;;;;4404834;32;20078;-77
2022/12/24 02:20:10;;;;;;;0.40;0.40;;;6.40;99.90;;;;;;4390700;32;20077;-77
2022/12/24 02:23:08;;;;;;;0.55;0.55;;;6.50;99.90;;;;;;4402110;32;20555;-77
2022/12/24 02:26:00;;;;;;;0.40;0.40;;;6.40;99.90;;;;;;4393013;32;20482;-77
2022/12/24 02:28:45;;;;;;;0.88;0.70;;;6.40;99.90;;;;;;4389546;32;20089;-77
2022/12/24 02:31:19;;;;;;;0.32;0.32;;;6.40;99.90;;;;;;4401244;32;20074;-77
2022/12/24 02:33:52;;;;;;;1.25;0.95;;;6.40;99.90;;;;;;4399891;32;20094;-78
2022/12/24 02:36:28;;;;;;;0.50;0.50;;;6.50;99.90;;;;;;4401560;32;20098;-77
2022/12/24 02:39:03;;;;;;;0.93;0.93;;;6.50;99.90;;;;;;4404188;32;20331;-77
2022/12/24 02:42:04;;;;;;;0.30;0.30;;;6.50;99.90;;;;;;4389594;32;20097;-78
2022/12/24 02:44:23;;;;;;;2.75;0.60;;;6.50;99.90;;;;;;4379617;32;20482;-77
2022/12/24 02:46:49;;;;;;;0.32;0.32;;;6.50;99.90;;;;;;4401805;32;20105;-78
2022/12/24 02:49:15;;;;;;;0.45;0.45;;;6.50;99.90;;;;;;4403917;32;20168;-77
2022/12/24 02:51:40;;;;;;;0.30;0.30;;;6.40;99.90;;;;;;4403211;32;20127;-77
2022/12/24 02:54:06;;;;;;;0.68;0.68;;;6.40;99.90;;;;;;4405198;32;20065;-77
2022/12/24 02:56:55;;;;;;;0.40;0.40;;;6.50;99.90;;;;;;4403741;32;20083;-78
2022/12/24 02:59:42;;;;;;;0.40;0.40;;;6.50;99.90;;;;;;4388096;32;20069;-77
2022/12/24 03:02:32;;;;;;;0.50;0.50;;;6.50;99.90;;;;;;4387635;32;20126;-77
2022/12/24 03:05:07;;;;;;;0.93;0.68;;;6.40;99.90;;;;;;4392526;32;20082;-77
2022/12/24 03:07:43;;;;;;;0.50;0.50;;;6.40;99.90;;;;;;4403347;32;20073;-77
2022/12/24 03:10:49;;;;;;;0.43;0.43;;;6.40;99.90;;;;;;4397599;32;20841;-77
2022/12/24 03:13:17;;;;;;;0.68;0.65;;;6.40;99.90;;;;;;4367553;32;20101;-77
2022/12/24 03:15:44;;;;;;;0.95;0.52;;;6.40;99.90;;;;;;4394943;32;20075;-77
2022/12/24 03:18:12;;;;;;;0.65;0.60;;;6.40;99.90;;;;;;4401415;32;20576;-77
2022/12/24 03:20:43;;;;;;;0.52;0.40;;;6.40;99.90;;;;;;4401863;32;20085;-77
2022/12/24 03:23:09;;;;;;;0.52;0.52;;;6.40;99.90;;;;;;4401725;32;20081;-77
2022/12/24 03:25:40;;;;;;;0.50;0.50;;;6.40;99.90;;;;;;4400408;32;20542;-77
2022/12/24 03:28:08;;;;;;;0.60;0.60;;;6.40;99.90;;;;;;4402090;32;20093;-77
2022/12/24 03:30:34;;;;;;;0.98;0.50;;;6.50;99.90;;;;;;4401636;32;20086;-78
2022/12/24 03:32:59;;;;;;;1.27;0.93;;;6.40;99.90;;;;;;4402446;32;20219;-77
2022/12/24 03:35:25;;;;;;;2.47;0.60;;;6.40;99.90;;;;;;4403732;32;21185;-77
2022/12/24 03:37:51;;;;;;;2.25;1.25;;;6.40;99.90;;;;;;4401525;32;20078;-78
2022/12/24 03:40:16;;;;;;;0.60;0.60;;;6.40;99.90;;;;;;4400836;32;20066;-78
2022/12/24 03:42:42;;;;;;;0.43;0.43;;;6.40;99.90;;;;;;4389187;32;20169;-78
2022/12/24 03:45:08;;;;;;;0.60;0.60;;;6.40;99.90;;;;;;4399239;32;20070;-77
2022/12/24 03:47:33;;;;;;;0.52;0.43;;;6.40;99.90;;;;;;4405851;32;21277;-77
2022/12/24 03:50:01;;;;;;;0.60;0.60;;;6.50;99.90;;;;;;4403395;32;20094;-77
2022/12/24 03:52:27;;;;;;;0.55;0.55;;;6.40;99.90;;;;;;4404757;32;20085;-78
2022/12/24 03:54:52;;;;;;;0.90;0.68;;;6.40;99.90;;;;;;4406816;32;20102;-77
2022/12/24 03:57:18;;;;;;;1.23;0.60;;;6.40;99.90;;;;;;4405750;32;20113;-77
2022/12/24 03:59:43;;;;;;;0.50;0.50;;;6.40;99.90;;;;;;4403689;32;21190;-77
2022/12/24 04:02:09;;;;;;;0.40;0.40;;;6.40;99.90;;;;;;4404423;32;20128;-77
2022/12/24 04:04:36;;;;;;;0.40;0.40;;;6.40;99.90;;;;;;4403864;32;20097;-78
2022/12/24 04:07:02;;;;;;;3.72;0.70;;;6.40;99.90;;;;;;4408339;32;20210;-77
2022/12/24 04:09:28;;;;;;;1.55;0.93;;;6.40;99.90;;;;;;4406468;32;20096;-77
2022/12/24 04:11:53;;;;;;;0.40;0.40;;;6.40;99.90;;;;;;4390820;32;20070;-78
2022/12/24 04:14:20;;;;;;;1.15;1.08;;;6.40;99.90;;;;;;4393338;32;20114;-77
2022/12/24 04:16:45;;;;;;;1.02;0.98;;;6.40;99.90;;;;;;4403547;32;20537;-77
2022/12/24 04:19:11;;;;;;;3.50;0.95;;;6.40;99.90;;;;;;4403579;32;20158;-77
2022/12/24 04:21:36;;;;;;;0.50;0.50;;;6.40;99.90;;;;;;4405528;32;20659;-77
2022/12/24 04:24:02;;;;;;;1.75;1.05;;;6.30;99.90;;;;;;4404172;32;20186;-77
2022/12/24 04:26:27;;;;;;;2.15;1.05;;;6.30;99.90;;;;;;4404413;32;20082;-77
2022/12/24 04:28:52;;;;;;;1.23;0.75;;;6.30;99.90;;;;;;4406550;32;20078;-77
2022/12/24 04:31:18;;;;;;;0.70;0.70;;;6.40;99.90;;;;;;4403335;32;20089;-77
2022/12/24 04:33:44;;;;;;;1.55;1.25;;;6.30;99.90;;;;;;4406019;32;20113;-77
2022/12/24 04:36:13;;;;;;;0.75;0.50;;;6.40;99.90;;;;;;4402504;32;20105;-78
2022/12/24 04:38:38;;;;;;;0.47;0.47;;;6.40;99.90;;;;;;4402467;32;20090;-78
2022/12/24 04:41:07;;;;;;;0.62;0.62;;;6.40;99.90;;;;;;4396500;32;20093;-78
2022/12/24 04:43:33;;;;;;;0.82;0.80;;;6.30;99.90;;;;;;4389116;32;20116;-78
2022/12/24 04:46:08;;;;;;;0.60;0.60;;;6.30;99.90;;;;;;4399502;32;20089;-77
2022/12/24 04:48:35;;;;;;;0.60;0.60;;;6.30;99.90;;;;;;4407419;32;20428;-77
2022/12/24 04:51:04;;;;;;;0.57;0.57;;;6.40;99.90;;;;;;4402053;32;20106;-77
2022/12/24 04:53:31;;;;;;;0.40;0.40;;;6.30;99.90;;;;;;4401253;32;20140;-77
2022/12/24 04:55:56;;;;;;;1.12;0.80;;;6.30;99.90;;;;;;4403694;32;20066;-77
2022/12/24 04:58:22;;;;;;;2.08;1.10;;;6.20;99.90;;;;;;4405502;32;20070;-78
2022/12/24 05:00:49;;;;;;;0.80;0.75;;;6.30;99.90;;;;;;4402990;32;20478;-77
2022/12/24 05:03:14;;;;;;;1.15;0.73;;;6.30;99.90;;;;;;4408165;32;20531;-78
2022/12/24 05:05:40;;;;;;;0.57;0.57;;;6.20;99.90;;;;;;4404448;32;20133;-77
2022/12/24 05:08:06;;;;;;;1.08;0.75;;;6.20;99.90;;;;;;4405271;32;20089;-77
2022/12/24 05:10:32;;;;;;;0.85;0.85;;;6.30;99.90;;;;;;4394623;32;20070;-78
2022/12/24 05:12:57;;;;;;;0.47;0.47;;;6.30;99.90;;;;;;4388910;32;20408;-78
2022/12/24 05:15:23;;;;;;;1.00;0.77;;;6.30;99.90;;;;;;4397249;32;20097;-77
2022/12/24 05:17:49;;;;;;;0.50;0.50;;;6.30;99.90;;;;;;4401319;32;20180;-78
2022/12/24 05:20:15;;;;;;;0.85;0.85;;;6.30;99.90;;;;;;4403852;32;20144;-78
2022/12/24 05:26:32;;;;;;;0.60;0.50;;;6.20;99.90;;;;;;4390631;32;20490;-78
2022/12/24 05:28:07;;;;;;;2.40;1.12;;;6.20;99.90;;;;;;4403959;32;20097;-77
2022/12/24 05:30:32;;;;;;;0.50;0.50;;;6.30;99.90;;;;;;4401341;32;20090;-77
2022/12/24 05:32:58;;;;;;;0.50;0.50;;;6.30;99.90;;;;;;4403882;32;20604;-77
2022/12/24 05:35:23;;;;;;;0.57;0.57;;;6.20;99.90;;;;;;4404439;32;20129;-77
2022/12/24 05:37:48;;;;;;;1.08;0.80;;;6.20;99.90;;;;;;4405731;32;20141;-78
2022/12/24 05:40:14;;;;;;;0.55;0.55;;;6.20;99.90;;;;;;4400463;32;20148;-78
2022/12/24 05:42:39;;;;;;;0.45;0.45;;;6.20;99.90;;;;;;4389910;32;20327;-78
2022/12/24 05:45:06;;;;;;;0.40;0.40;;;6.10;99.90;;;;;;4396042;32;20090;-78
2022/12/24 05:47:31;;;;;;;0.45;0.45;;;6.20;99.90;;;;;;4402711;32;20070;-77
2022/12/24 05:49:57;;;;;;;0.62;0.62;;;6.20;99.90;;;;;;4401792;32;20089;-78
2022/12/24 05:52:22;;;;;;;3.85;2.28;;;6.20;99.90;;;;;;4399906;32;20502;-78
2022/12/24 05:54:48;;;;;;;2.20;1.00;;;6.20;99.90;;;;;;4404361;32;20121;-78
2022/12/24 05:57:14;;;;;;;0.60;0.60;;;6.10;99.90;;;;;;4403394;32;20089;-78
2022/12/24 05:59:40;;;;;;;0.40;0.40;;;6.10;99.90;;;;;;4403823;32;20069;-78
2022/12/24 06:02:05;;;;;;;0.60;0.60;;;6.20;99.90;;;;;;4403138;32;20101;-78
2022/12/24 06:04:31;;;;;;;0.70;0.70;;;6.20;99.90;;;;;;4403295;32;20074;-78
2022/12/24 06:06:56;;;;;;;1.05;1.02;;;6.20;99.90;;;;;;4405100;32;21332;-77
2022/12/24 06:09:22;;;;;;;1.08;1.08;;;6.20;99.90;;;;;;4404206;32;20459;-78
2022/12/24 06:11:47;;;;;;;2.50;1.05;;;6.20;99.90;;;;;;4387706;32;20070;-78
2022/12/24 06:14:12;;;;;;;0.82;0.82;;;6.10;99.90;;;;;;4387971;32;20432;-78
2022/12/24 06:16:38;;;;;;;0.40;0.40;;;6.10;99.90;;;;;;4401463;32;20206;-78
2022/12/24 06:19:03;;;;;;;1.62;0.77;;;6.10;99.90;;;;;;4400380;32;20098;-78
2022/12/24 06:21:29;;;;;;;0.45;0.45;;;6.10;99.90;;;;;;4403028;32;20561;-78
2022/12/24 06:23:55;;;;;;;1.08;0.75;;;6.20;99.90;;;;;;4403170;32;20069;-78
2022/12/24 06:26:22;;;;;;;2.50;1.35;;;6.20;99.90;;;;;;4402157;32;20114;-78
2022/12/24 06:28:49;;;;;;;0.60;0.60;;;6.10;99.90;;;;;;4403488;32;20129;-78
2022/12/24 06:31:17;;;;;;;3.05;1.12;;;6.10;99.90;;;;;;4405473;32;20074;-78
2022/12/24 06:33:44;;;;;;;0.50;0.50;;;6.10;99.90;;;;;;4402154;32;20078;-78
2022/12/24 06:36:13;;;;;;;0.45;0.45;;;6.10;99.90;;;;;;4403917;32;20089;-78
2022/12/24 06:38:39;;;;;;;0.77;0.62;;;6.10;99.90;;;;;;4400895;32;20530;-78
2022/12/24 06:41:06;;;;;;;1.17;0.95;;;6.10;99.90;;;;;;4392639;32;20452;-78
2022/12/24 06:43:33;;;;;;;0.68;0.68;;;6.10;99.90;;;;;;4386786;32;20058;-78
2022/12/24 06:46:00;;;;;;;0.82;0.70;;;6.10;99.90;;;;;;4398747;32;20152;-78
2022/12/24 06:48:25;;;;;;;0.50;0.50;;;6.10;99.90;;;;;;4398692;32;20545;-78
2022/12/24 06:50:53;;;;;;;8.55;2.08;;;6.10;99.90;;;;;;4397520;32;20077;-78
2022/12/24 06:53:18;;;;;;;1.17;0.80;;;6.10;99.90;;;;;;4402978;32;20070;-77
2022/12/24 06:55:44;;;;;;;2.28;0.93;;;6.20;99.90;;;;;;4400099;32;20070;-78
2022/12/24 06:58:09;;;;;;;10.70;3.00;;;6.20;99.90;;;;;;4402740;32;20073;-78
2022/12/24 07:00:35;;;;;;;0.88;0.88;;;6.20;99.90;;;;;;4401468;32;20082;-78
2022/12/24 07:03:01;;;;;;;0.70;0.70;;;6.20;99.90;;;;;;4400381;32;20567;-78
2022/12/24 07:05:27;;;;;;;0.50;0.50;;;6.10;99.90;;;;;;4400204;32;20091;-78
2022/12/24 07:07:52;;;;;;;0.62;0.62;;;6.20;99.90;;;;;;4400656;32;20117;-78
2022/12/24 07:10:19;;;;;;;0.70;0.70;;;6.20;99.90;;;;;;4399581;32;20102;-78
2022/12/24 07:12:45;;;;;;;4.05;1.48;;;6.20;99.90;;;;;;4388843;32;20791;-78
2022/12/24 07:15:12;;;;;;;0.70;0.70;;;6.10;99.90;;;;;;4393964;32;20463;-78
2022/12/24 07:17:37;;;;;;;0.52;0.52;;;6.20;99.90;;;;;;4401200;32;20057;-78
2022/12/24 07:20:04;;;;;;;1.17;1.10;;;6.20;99.90;;;;;;4403661;32;20077;-78
2022/12/24 07:22:30;;;;;;;0.98;0.95;;;6.20;99.90;;;;;;4402709;32;20070;-78
2022/12/24 07:24:55;;;;;;;2.17;0.95;;;6.10;99.90;;;;;;4403175;32;20569;-78
2022/12/24 07:27:21;;;;;;;3.70;0.82;;;6.10;99.90;;;;;;4403779;32;20062;-78
2022/12/24 07:29:47;;;;;;;1.23;0.93;;;6.20;99.90;;;;;;4403276;32;20424;-78
2022/12/24 07:32:12;;;;;;;0.90;0.77;;;6.20;99.90;;;;;;4401406;32;110897;-77
2022/12/24 07:34:38;;;;;;;5.35;2.08;;;6.30;99.90;;;;;;4402389;32;20070;-78
2022/12/24 07:37:04;;;;;;;0.90;0.90;;;6.30;99.90;;;;;;4404005;32;20152;-78
2022/12/24 07:39:30;;;;;;;0.60;0.60;;;6.10;99.90;;;;;;4405421;32;21444;-78
2022/12/24 07:41:55;;;;;;;0.68;0.68;;;6.20;99.90;;;;;;4394853;32;20054;-78
2022/12/24 07:44:21;;;;;;;0.40;0.40;;;6.20;99.90;;;;;;4391462;32;20487;-78
2022/12/24 07:46:46;;;;;;;0.52;0.52;;;6.10;99.90;;;;;;4403653;32;20097;-78
2022/12/24 07:49:12;;;;;;;0.80;0.80;;;6.10;99.90;;;;;;4405176;32;20151;-78
2022/12/24 07:51:38;;;;;;;0.80;0.80;;;6.10;99.90;;;;;;4405411;32;20521;-78
2022/12/24 07:54:03;;;;;;;0.90;0.90;;;6.10;99.90;;;;;;4402916;32;20086;-78
2022/12/24 07:56:30;;;;;;;21.55;3.75;;;6.10;99.90;;;;;;4404041;32;20078;-78
2022/12/24 07:58:56;;;;;;;1.00;0.88;;;6.10;99.90;;;;;;4405949;32;20592;-78
2022/12/24 08:01:21;;;;;;;1.33;1.12;;;6.10;99.90;;;;;;4406478;32;20152;-78
2022/12/24 08:03:47;;;;;;;0.55;0.55;;;6.20;99.90;;;;;;4406782;32;20085;-78
2022/12/24 08:06:12;;;;;;;0.93;0.93;;;6.20;99.90;;;;;;4410197;32;20074;-79
2022/12/24 08:08:39;;;;;;;0.65;0.65;;;6.20;99.90;;;;;;4413607;32;20066;-78
2022/12/24 08:11:05;;;;;;;2.37;0.80;;;6.20;99.90;;;;;;4396034;32;20601;-78
2022/12/24 08:13:31;;;;;;;0.73;0.73;;;6.20;99.90;;;;;;4389030;32;20069;-78
2022/12/24 08:15:58;;;;;;;0.73;0.73;;;6.20;99.90;;;;;;4400469;32;20054;-78
2022/12/24 08:18:23;;;;;;;0.65;0.65;;;6.20;99.90;;;;;;4401422;32;20556;-78
2022/12/24 08:20:49;;;;;;;0.70;0.70;;;6.10;99.90;;;;;;4405288;32;20462;-78
2022/12/24 08:23:15;;;;;;;1.58;0.88;;;6.10;99.90;;;;;;4404396;32;20102;-78
2022/12/24 08:25:43;;;;;;;0.60;0.60;;;6.10;99.90;;;;;;4406631;32;20062;-78
2022/12/24 08:28:10;;;;;;;1.25;1.15;;;6.20;99.90;;;;;;4403580;32;20109;-78
2022/12/24 08:30:37;;;;;;;0.40;0.40;;;6.30;99.90;;;;;;4390647;32;20553;-78
2022/12/24 08:33:02;;;;;;;0.62;0.62;;;6.30;99.90;;;;;;4403315;32;20082;-78
2022/12/24 08:35:29;;;;;;;0.73;0.73;;;6.30;99.90;;;;;;4402543;32;20098;-79
2022/12/24 08:37:55;;;;;;;1.58;1.25;;;6.40;99.90;;;;;;4404606;32;20065;-78
2022/12/24 08:40:20;;;;;;;1.12;1.02;;;6.30;99.90;;;;;;4403010;32;20546;-78
2022/12/24 08:42:46;;;;;;;3.65;1.00;;;6.30;99.90;;;;;;4390898;32;20628;-78
2022/12/24 08:45:12;;;;;;;1.50;1.12;;;6.30;99.90;;;;;;4396669;32;20085;-78
2022/12/24 08:47:38;;;;;;;3.53;1.05;;;6.30;99.90;;;;;;4402989;32;20097;-78
2022/12/24 08:50:06;;;;;;;0.95;0.95;;;6.30;99.90;;;;;;4409278;32;20129;-78
2022/12/24 08:52:32;;;;;;;0.57;0.57;;;6.30;99.90;;;;;;4402934;32;20090;-77
2022/12/24 08:54:58;;;;;;;0.75;0.75;;;6.30;99.90;;;;;;4403271;32;20094;-78
2022/12/24 08:57:23;;;;;;;1.23;1.05;;;6.40;99.90;;;;;;4403535;32;20420;-77
2022/12/24 08:59:49;;;;;;;0.93;0.90;;;6.40;99.90;;;;;;4404486;32;20428;-77
2022/12/24 09:02:14;;;;;;;0.77;0.77;;;6.40;99.90;;;;;;4401768;32;20062;-78
2022/12/24 09:04:46;;;;;;;0.68;0.68;;;6.40;99.90;;;;;;4403687;32;20101;-78
2022/12/24 09:07:11;;;;;;;0.70;0.70;;;6.40;99.90;;;;;;4389784;32;20111;-78
2022/12/24 09:09:38;;;;;;;0.50;0.50;;;6.40;99.90;;;;;;4402742;32;20694;-79
2022/12/24 09:12:05;;;;;;;1.85;0.75;;;6.40;99.90;;;;;;4389683;32;20079;-78
2022/12/24 09:14:31;;;;;;;2.08;1.30;;;6.40;99.90;;;;;;4392878;32;20420;-78
2022/12/24 09:16:56;;;;;;;1.60;1.12;;;6.50;99.90;;;;;;4405907;32;20073;-78
2022/12/24 09:19:22;;;;;;;1.52;1.27;;;6.40;99.90;;;;;;4404667;32;20509;-79
2022/12/24 09:21:47;;;;;;;0.55;0.55;;;6.40;99.90;;;;;;4403729;32;20257;-78
2022/12/24 09:24:13;;;;;;;1.23;1.00;;;6.40;99.90;;;;;;4404165;32;20089;-77
2022/12/24 09:26:40;;;;;;;1.70;1.05;;;6.50;99.90;;;;;;4407300;32;20093;-77
2022/12/24 09:29:09;;;;;;;1.15;0.98;;;6.50;99.90;;;;;;4403826;32;20074;-77
2022/12/24 09:31:35;;;;;;;0.57;0.57;;;6.60;99.90;;;;;;4406825;32;20105;-77
2022/12/24 09:34:00;;;;;;;0.77;0.77;;;6.50;99.90;;;;;;4404076;32;20137;-77
2022/12/24 09:36:26;;;;;;;0.40;0.40;;;6.60;99.90;;;;;;4402999;32;20066;-77
2022/12/24 09:38:52;;;;;;;0.77;0.77;;;6.70;99.90;;;;;;4403800;32;20082;-77
2022/12/24 09:41:43;;;;;;;0.50;0.50;;;6.70;99.90;;;;;;4395234;32;20078;-78
2022/12/24 09:44:33;;;;;;;0.98;0.98;;;6.80;99.90;;;;;;4379021;32;20093;-77
2022/12/24 09:47:02;;;;;;;0.80;0.80;;;6.80;99.90;;;;;;4392163;32;20110;-77
2022/12/24 09:49:38;;;;;;;2.00;1.08;;;6.70;99.90;;;;;;4402337;32;20151;-77
2022/12/24 09:52:08;;;;;;;2.65;0.77;;;6.80;99.90;;;;;;4404134;32;20074;-77
2022/12/24 09:54:43;;;;;;;1.58;1.15;;;6.80;99.90;;;;;;4404807;32;20134;-77
2022/12/24 09:57:28;;;;;;;0.50;0.50;;;6.80;99.90;;;;;;4404644;32;20066;-77
2022/12/24 09:59:55;;;;;;;0.68;0.68;;;6.80;99.90;;;;;;4389521;32;20098;-77
2022/12/24 10:02:22;;;;;;;1.92;0.60;;;6.80;99.90;;;;;;4401322;32;20124;-77
2022/12/24 10:04:48;;;;;;;0.98;0.85;;;6.80;99.90;;;;;;4401528;32;20070;-77
2022/12/24 10:07:36;;;;;;;0.68;0.68;;;6.90;99.90;;;;;;4403455;32;20089;-77
2022/12/24 10:10:30;;;;;;;0.68;0.68;;;6.90;99.90;;;;;;4396770;32;20090;-77
2022/12/24 10:13:36;;;;;;;0.60;0.60;;;7.00;99.90;;;;;;4376815;32;20145;-77
2022/12/24 10:16:19;;;;;;;0.57;0.57;;;7.00;99.90;;;;;;4382180;32;21232;-77
2022/12/24 10:19:03;;;;;;;0.40;0.40;;;7.00;99.90;;;;;;4400364;32;20096;-77
2022/12/24 10:21:49;;;;;;;2.05;0.80;;;7.10;99.90;;;;;;4401274;32;20102;-77
2022/12/24 10:24:28;;;;;;;0.50;0.50;;;7.10;99.90;;;;;;4400364;32;20199;-77
2022/12/24 10:27:01;;;;;;;2.30;1.20;;;7.20;99.90;;;;;;4398904;32;20648;-77
2022/12/24 10:29:30;;;;;;;0.65;0.50;;;7.20;99.90;;;;;;4399888;32;20078;-77
2022/12/24 10:32:20;;;;;;;0.50;0.50;;;7.20;99.90;;;;;;4398151;32;20134;-77
2022/12/24 10:34:54;;;;;;;0.30;0.30;;;7.20;99.90;;;;;;4389061;32;20097;-77
2022/12/24 10:37:23;;;;;;;2.92;1.00;;;7.30;99.90;;;;;;4399358;32;20145;-77
2022/12/24 10:39:49;;;;;;;0.50;0.50;;;7.30;99.90;;;;;;4398494;32;20533;-78
2022/12/24 10:42:16;;;;;;;0.30;0.30;;;7.30;99.90;;;;;;4388611;32;20239;-78
2022/12/24 10:44:48;;;;;;;1.48;0.57;;;7.40;99.90;;;;;;4393017;32;20066;-77
2022/12/24 10:47:15;;;;;;;0.40;0.40;;;7.40;99.90;;;;;;4399877;32;20113;-77
2022/12/24 10:49:47;;;;;;;0.40;0.40;;;7.50;99.90;;;;;;4398846;32;20152;-77
2022/12/24 10:52:16;;;;;;;0.30;0.30;;;7.50;99.90;;;;;;4399949;32;20121;-78
2022/12/24 10:55:06;;;;;;;0.40;0.40;;;7.50;99.90;;;;;;4403080;32;20078;-77
2022/12/24 10:57:33;;;;;;;0.40;0.40;;;7.50;99.90;;;;;;4386713;32;20074;-78
2022/12/24 11:00:00;;;;;;;0.40;0.40;;;7.60;99.90;;;;;;4399278;32;20203;-77
2022/12/24 11:02:31;;;;;;;0.40;0.40;;;7.60;99.90;;;;;;4401409;32;20062;-77
2022/12/24 11:05:03;;;;;;;1.75;0.85;;;7.50;99.90;;;;;;4397879;32;20063;-77
2022/12/24 11:07:30;;;;;;;0.40;0.40;;;7.60;99.90;;;;;;4401909;32;20136;-77
2022/12/24 11:09:59;;;;;;;1.20;0.82;;;7.60;99.90;;;;;;4402244;32;20054;-78
2022/12/24 11:12:28;;;;;;;0.57;0.57;;;7.60;99.90;;;;;;4389370;32;20503;-78
2022/12/24 11:15:01;;;;;;;0.50;0.50;;;7.70;99.90;;;;;;4392444;32;20178;-78
2022/12/24 11:17:27;;;;;;;0.57;0.40;;;7.70;99.90;;;;;;4404572;32;20509;-78
2022/12/24 11:19:53;;;;;;;0.35;0.35;;;7.80;99.90;;;;;;4398862;32;20082;-77
2022/12/24 11:22:23;;;;;;;1.08;0.60;;;7.80;99.90;;;;;;4399034;32;20091;-77
2022/12/24 11:25:06;;;;;;;;;;;7.80;99.90;;;;;;4397931;32;20101;-77
2022/12/24 11:27:41;;;;;;;0.30;0.30;;;7.70;99.90;;;;;;4399967;32;20965;-77
2022/12/24 11:30:26;;;;;;;0.35;0.35;;;7.80;99.90;;;;;;4397208;32;20545;-77
2022/12/24 11:33:03;;;;;;;0.45;0.45;;;7.80;99.90;;;;;;4398953;32;20134;-78
2022/12/24 11:35:31;;;;;;;2.72;1.55;;;7.90;99.90;;;;;;4400301;32;20078;-78
2022/12/24 11:38:03;;;;;;;0.32;0.32;;;7.90;99.90;;;;;;4400157;32;20667;-78
2022/12/24 11:40:37;;;;;;;0.40;0.40;;;8.00;99.90;;;;;;4398229;32;20061;-78
2022/12/24 11:43:04;;;;;;;0.40;0.40;;;8.10;99.90;;;;;;4386384;32;20085;-78
2022/12/24 11:45:32;;;;;;;0.50;0.50;;;8.20;99.90;;;;;;4396352;32;20097;-77
2022/12/24 11:47:59;;;;;;;0.40;0.40;;;8.20;99.90;;;;;;4403127;32;20220;-77
2022/12/24 11:50:34;;;;;;;1.85;0.50;;;8.20;99.90;;;;;;4403503;32;20524;-77
2022/12/24 11:53:10;;;;;;;0.40;0.40;;;8.20;99.90;;;;;;4402901;32;20137;-77
2022/12/24 11:55:46;;;;;;;0.60;0.60;;;8.20;99.90;;;;;;4399072;32;20069;-78
2022/12/24 11:58:21;;;;;;;2.40;0.90;;;8.30;99.90;;;;;;4403354;32;20235;-77
2022/12/24 12:00:50;;;;;;;1.10;0.60;;;8.30;99.90;;;;;;4399932;32;20085;-77
2022/12/24 12:03:38;;;;;;;0.52;0.52;;;8.30;99.90;;;;;;4402999;32;20091;-77
2022/12/24 12:06:27;;;;;;;0.40;0.40;;;8.40;99.90;;;;;;4390351;32;20114;-77
2022/12/24 12:09:00;;;;;;;0.55;0.50;;;8.60;99.90;;;;;;4393205;32;20146;-78
2022/12/24 12:11:27;;;;;;;0.30;0.30;;;8.70;99.90;;;;;;4389446;32;20093;-78
2022/12/24 12:13:57;;;;;;;0.40;0.40;;;8.70;99.90;;;;;;4386716;32;20066;-78
2022/12/24 12:16:59;;;;;;;0.65;0.50;;;8.70;99.90;;;;;;4407663;32;20706;-78
2022/12/24 12:19:25;;;;;;;0.32;0.32;;;8.60;99.90;;;;;;4397359;32;20782;-78
2022/12/24 12:21:51;;;;;;;0.40;0.40;;;8.60;99.90;;;;;;4407880;32;20580;-78
2022/12/24 12:24:23;;;;;;;0.40;0.40;;;8.60;99.90;;;;;;4406681;32;20085;-78
2022/12/24 12:27:02;;;;;;;0.60;0.60;;;8.50;99.90;;;;;;4406108;32;20097;-78
2022/12/24 12:29:35;;;;;;;0.40;0.40;;;8.50;99.90;;;;;;4407971;32;20589;-79
2022/12/24 12:32:06;;;;;;;0.55;0.55;;;8.50;99.90;;;;;;4394255;32;20494;-78
2022/12/24 12:34:38;;;;;;;0.32;0.32;;;8.50;99.90;;;;;;4411071;32;20094;-78
2022/12/24 12:37:19;;;;;;;0.70;0.60;;;8.50;99.90;;;;;;4411758;32;20137;-79
2022/12/24 12:39:44;;;;;;;4.75;1.25;;;8.50;99.90;;;;;;4406924;32;20070;-78
2022/12/24 12:42:25;;;;;;;2.12;0.70;;;8.60;99.90;;;;;;4399445;32;20117;-78
2022/12/24 12:45:12;;;;;;;0.45;0.45;;;8.60;99.90;;;;;;4400426;32;20125;-78
2022/12/24 12:48:11;;;;;;;0.40;0.40;;;8.60;99.90;;;;;;4395661;32;20070;-78
2022/12/24 12:50:47;;;;;;;0.50;0.50;;;8.60;99.90;;;;;;4396577;32;20082;-78
2022/12/24 12:53:25;;;;;;;0.43;0.37;;;8.60;99.90;;;;;;4406398;32;20070;-78
2022/12/24 12:56:31;;;;;;;0.40;0.40;;;8.60;99.90;;;;;;4406511;32;20121;-78
2022/12/24 12:59:11;;;;;;;1.10;0.80;;;8.60;99.90;;;;;;4388699;32;20093;-78
2022/12/24 13:02:04;;;;;;;0.50;0.50;;;8.60;99.90;;;;;;4396535;32;20140;-78
2022/12/24 13:04:59;;;;;;;0.80;0.77;;;8.60;99.90;;;;;;4396964;32;20077;-78
2022/12/24 13:07:51;;;;;;;1.05;0.70;;;8.70;99.90;;;;;;4393532;32;20106;-78
2022/12/24 13:10:37;;;;;;;0.77;0.73;;;8.70;99.90;;;;;;4396307;32;20171;-78
2022/12/24 13:13:34;;;;;;;0.93;0.93;;;8.80;99.90;;;;;;4387655;32;20074;-78
2022/12/24 13:16:33;;;;;;;0.62;0.62;;;8.80;99.90;;;;;;4387476;32;20090;-78